Terminal Aerodrome Forecast
Issued by NWS Wilmington, OH

Current Version | Previous Version | Text Only | Print | Product List | Glossary On
Versions: 1 2 3 4 5 6 7 8 9 10 11 12 13 14 15 16 17 18 19 20
000
FTUS41 KILN 290537
TAFCMH
TAF
KCMH 290537Z 2906/3006 14006KT P6SM SCT250
     FM291300 18005KT P6SM SCT045 BKN200
      TEMPO 2918/2922 21007KT BKN040 OVC180
     FM292200 16004KT P6SM VCSH BKN040 OVC150=

USA.gov is the U.S. government's official web portal to all federal, state and local government web resources and services.